createdAt,value
2018-08-09T00:01:18.640Z,2.10
2018-08-09T00:03:47.236Z,2.07
2018-08-09T00:06:15.934Z,2.33
2018-08-09T00:08:44.400Z,1.90
2018-08-09T00:11:12.962Z,2.10
2018-08-09T00:13:41.577Z,2.10
2018-08-09T00:16:10.164Z,2.07
2018-08-09T00:18:38.712Z,2.20
2018-08-09T00:21:07.297Z,2.20
2018-08-09T00:23:35.832Z,2.40
2018-08-09T00:26:04.344Z,2.20
2018-08-09T00:28:32.861Z,2.70
2018-08-09T00:31:01.395Z,2.67
2018-08-09T00:33:29.923Z,2.20
2018-08-09T00:35:58.572Z,2.33
2018-08-09T00:38:27.147Z,2.70
2018-08-09T00:40:55.828Z,2.47
2018-08-09T00:43:24.554Z,2.33
2018-08-09T00:45:53.190Z,2.80
2018-08-09T00:48:21.776Z,2.57
2018-08-09T00:50:50.305Z,2.47
2018-08-09T00:53:18.847Z,3.00
2018-08-09T00:55:47.556Z,2.90
2018-08-09T00:58:16.144Z,3.00
2018-08-09T01:00:44.761Z,2.80
2018-08-09T01:03:13.281Z,2.70
2018-08-09T01:05:41.926Z,2.70
2018-08-09T01:08:10.480Z,2.93
2018-08-09T01:10:39.102Z,2.83
2018-08-09T01:13:07.676Z,3.80
2018-08-09T01:15:36.367Z,3.47
2018-08-09T01:18:04.954Z,3.20
2018-08-09T01:20:33.488Z,3.63
2018-08-09T01:23:01.944Z,3.70
2018-08-09T01:25:30.554Z,3.97
2018-08-09T01:27:59.192Z,4.00
2018-08-09T01:30:27.695Z,3.67
2018-08-09T01:32:56.363Z,3.73
2018-08-09T01:35:24.868Z,3.80
2018-08-09T01:37:53.439Z,3.57
2018-08-09T01:40:22.050Z,3.90
2018-08-09T01:43:01.637Z,3.73
2018-08-09T01:45:30.267Z,3.80
2018-08-09T01:47:58.814Z,3.53
2018-08-09T01:50:27.362Z,3.50
2018-08-09T01:52:55.908Z,3.83
2018-08-09T01:55:24.475Z,3.50
2018-08-09T01:57:53.072Z,3.57
2018-08-09T02:00:21.594Z,4.20
2018-08-09T02:02:50.120Z,3.97
2018-08-09T02:05:18.722Z,4.10
2018-08-09T02:07:47.293Z,4.33
2018-08-09T02:10:15.823Z,4.27
2018-08-09T02:12:44.396Z,3.90
2018-08-09T02:15:12.994Z,3.80
2018-08-09T02:17:41.618Z,3.50
2018-08-09T02:20:10.079Z,4.17
2018-08-09T02:22:38.624Z,4.07
2018-08-09T02:25:07.092Z,4.00
2018-08-09T02:27:35.635Z,4.37
2018-08-09T02:30:05.212Z,4.20
2018-08-09T02:32:33.699Z,3.57
2018-08-09T02:35:02.213Z,4.50
2018-08-09T02:37:30.816Z,3.80
2018-08-09T02:39:59.289Z,3.63
2018-08-09T02:42:27.832Z,3.43
2018-08-09T02:44:56.315Z,3.77
2018-08-09T02:47:24.926Z,3.73
2018-08-09T02:49:53.481Z,3.90
2018-08-09T02:52:22.035Z,4.30
2018-08-09T02:54:50.580Z,3.73
2018-08-09T02:57:19.187Z,3.80
2018-08-09T02:59:47.780Z,4.77
2018-08-09T03:02:16.309Z,4.20
2018-08-09T03:04:44.795Z,4.10
2018-08-09T03:07:13.338Z,4.40
2018-08-09T03:09:41.876Z,4.30
2018-08-09T03:12:10.475Z,3.90
2018-08-09T03:14:39.010Z,3.77
2018-08-09T03:17:07.550Z,3.63
2018-08-09T03:19:36.079Z,3.90
2018-08-09T03:22:04.641Z,4.33
2018-08-09T03:24:33.179Z,4.43
2018-08-09T03:27:01.882Z,4.20
2018-08-09T03:29:30.464Z,4.27
2018-08-09T03:31:59.099Z,4.03
2018-08-09T03:34:27.640Z,4.13
2018-08-09T03:36:56.264Z,3.87
2018-08-09T03:39:24.805Z,3.97
2018-08-09T03:41:53.521Z,3.90
2018-08-09T03:44:22.088Z,3.83
2018-08-09T03:46:50.621Z,4.03
2018-08-09T03:49:19.164Z,4.07
2018-08-09T03:51:47.643Z,4.10
2018-08-09T03:54:16.331Z,4.40
2018-08-09T03:56:44.867Z,4.10
2018-08-09T03:59:13.380Z,3.93
2018-08-09T04:01:41.915Z,4.10
2018-08-09T04:04:10.568Z,4.00
2018-08-09T04:06:39.120Z,4.00
2018-08-09T04:09:10.133Z,3.90
2018-08-09T04:11:38.686Z,3.87
2018-08-09T04:14:07.291Z,4.07
2018-08-09T04:16:35.808Z,6.10
2018-08-09T04:19:04.483Z,3.60
2018-08-09T04:21:33.065Z,4.47
2018-08-09T04:24:01.785Z,4.43
2018-08-09T04:26:30.714Z,3.80
2018-08-09T04:28:59.387Z,4.20
2018-08-09T04:31:27.986Z,4.60
2018-08-09T04:33:56.615Z,3.87
2018-08-09T04:36:25.299Z,4.00
2018-08-09T04:38:53.864Z,3.73
2018-08-09T04:41:22.524Z,3.77
2018-08-09T04:43:51.228Z,4.00
2018-08-09T04:46:20.143Z,3.70
2018-08-09T04:48:48.767Z,3.93
2018-08-09T04:51:18.315Z,4.20
2018-08-09T04:53:47.055Z,3.77
2018-08-09T04:56:15.999Z,3.87
2018-08-09T04:58:44.805Z,3.60
2018-08-09T05:01:13.543Z,3.70
2018-08-09T05:03:42.158Z,3.53
2018-08-09T05:06:10.925Z,3.27
2018-08-09T05:08:39.591Z,3.90
2018-08-09T05:11:08.267Z,3.90
2018-08-09T05:13:36.833Z,4.27
2018-08-09T05:16:05.618Z,4.33
2018-08-09T05:18:34.295Z,3.53
2018-08-09T05:21:03.039Z,4.20
2018-08-09T05:23:31.793Z,4.40
2018-08-09T05:26:01.459Z,4.30
2018-08-09T05:28:30.730Z,4.10
2018-08-09T05:30:59.311Z,4.33
2018-08-09T05:33:28.122Z,3.90
2018-08-09T05:35:57.025Z,4.53
2018-08-09T05:38:25.709Z,3.53
2018-08-09T05:40:54.293Z,3.63
2018-08-09T05:43:22.940Z,3.83
2018-08-09T05:45:51.660Z,4.47
2018-08-09T05:48:20.384Z,3.90
2018-08-09T05:50:48.958Z,4.03
2018-08-09T05:53:17.787Z,3.87
2018-08-09T05:55:46.427Z,4.53
2018-08-09T05:58:14.994Z,4.37
2018-08-09T06:00:43.677Z,4.20
2018-08-09T06:03:12.803Z,4.70
2018-08-09T06:05:41.688Z,3.97
2018-08-09T06:08:10.360Z,4.50
2018-08-09T06:10:39.177Z,4.03
2018-08-09T06:13:07.785Z,4.10
2018-08-09T06:15:37.460Z,4.30
2018-08-09T06:18:06.651Z,4.33
2018-08-09T06:20:35.386Z,4.47
2018-08-09T06:23:04.025Z,3.87
2018-08-09T06:25:32.626Z,4.60
2018-08-09T06:28:01.649Z,4.20
2018-08-09T06:30:30.366Z,4.80
2018-08-09T06:32:59.075Z,4.00
2018-08-09T06:35:27.710Z,3.93
2018-08-09T06:37:56.630Z,4.43
2018-08-09T06:40:25.436Z,4.30
2018-08-09T06:42:54.307Z,4.40
2018-08-09T06:45:22.990Z,3.97
2018-08-09T06:47:51.609Z,4.30
2018-08-09T06:50:20.164Z,4.00
2018-08-09T06:52:48.753Z,3.80
2018-08-09T06:55:17.330Z,3.83
2018-08-09T06:57:45.912Z,3.97
2018-08-09T07:00:14.472Z,3.30
2018-08-09T07:02:43.436Z,3.70
2018-08-09T07:05:11.995Z,3.30
2018-08-09T07:07:41.164Z,3.50
2018-08-09T07:10:10.333Z,3.80
2018-08-09T07:12:38.802Z,3.63
2018-08-09T07:15:11.332Z,3.53
2018-08-09T07:17:40.244Z,3.93
2018-08-09T07:20:10.313Z,3.53
2018-08-09T07:22:40.025Z,3.67
2018-08-09T07:25:08.547Z,3.70
2018-08-09T07:27:37.562Z,3.40
2018-08-09T07:30:09.504Z,3.23
2018-08-09T07:32:38.603Z,3.70
2018-08-09T07:35:07.472Z,3.30
2018-08-09T07:37:36.142Z,3.23
2018-08-09T07:40:05.788Z,2.97
2018-08-09T07:42:34.329Z,3.47
2018-08-09T07:45:03.092Z,3.20
2018-08-09T07:47:31.852Z,3.07
2018-08-09T07:50:00.471Z,2.90
2018-08-09T07:52:29.165Z,2.97
2018-08-09T07:54:57.822Z,2.90
2018-08-09T07:57:26.565Z,3.23
2018-08-09T07:59:55.323Z,3.47
2018-08-09T08:02:23.966Z,3.10
2018-08-09T08:04:52.687Z,3.20
2018-08-09T08:07:21.205Z,4.27
2018-08-09T08:09:49.736Z,3.87
2018-08-09T08:12:18.159Z,3.97
2018-08-09T08:14:47.120Z,4.07
2018-08-09T08:17:15.634Z,4.00
2018-08-09T08:19:44.231Z,3.50
2018-08-09T08:22:12.753Z,3.83
2018-08-09T08:24:41.299Z,4.37
2018-08-09T08:27:09.946Z,4.57
2018-08-09T08:29:38.520Z,4.80
2018-08-09T08:32:07.053Z,4.70
2018-08-09T08:34:35.544Z,4.70
2018-08-09T08:37:04.109Z,5.87
2018-08-09T08:39:32.618Z,5.80
2018-08-09T08:42:01.301Z,5.70
2018-08-09T08:44:29.788Z,6.03
2018-08-09T08:46:58.441Z,5.53
2018-08-09T08:49:27.017Z,6.47
2018-08-09T08:51:55.603Z,6.37
2018-08-09T08:54:24.791Z,5.87
2018-08-09T08:56:53.342Z,5.53
2018-08-09T08:59:21.873Z,6.00
2018-08-09T09:01:50.428Z,6.00
2018-08-09T09:04:18.920Z,7.07
2018-08-09T09:06:47.499Z,6.73
2018-08-09T09:09:16.287Z,7.17
2018-08-09T09:11:45.013Z,6.83
2018-08-09T09:14:13.872Z,6.35
2018-08-09T09:16:42.476Z,6.40
2018-08-09T09:19:11.645Z,7.30
2018-08-09T09:21:40.333Z,6.90
2018-08-09T09:24:08.983Z,6.97
2018-08-09T09:26:37.583Z,6.85
2018-08-09T09:29:06.236Z,6.87
2018-08-09T09:31:34.910Z,7.90
2018-08-09T09:34:03.561Z,8.18
2018-08-09T09:36:32.179Z,7.28
2018-08-09T09:39:00.843Z,7.10
2018-08-09T09:41:29.522Z,7.50
2018-08-09T09:43:58.162Z,8.13
2018-08-09T09:46:26.831Z,6.83
2018-08-09T09:48:55.494Z,7.10
2018-08-09T09:51:24.164Z,6.90
2018-08-09T09:53:52.657Z,7.03
2018-08-09T09:56:21.296Z,7.45
2018-08-09T09:58:49.826Z,7.58
2018-08-09T10:01:23.617Z,8.20
2018-08-09T10:03:52.213Z,7.83
2018-08-09T10:06:20.825Z,8.45
2018-08-09T10:08:49.307Z,8.58
2018-08-09T10:11:17.927Z,7.58
2018-08-09T10:13:46.436Z,8.08
2018-08-09T10:16:14.933Z,8.20
2018-08-09T10:18:43.448Z,8.78
2018-08-09T10:21:11.967Z,8.45
2018-08-09T10:23:40.540Z,8.28
2018-08-09T10:26:09.100Z,8.05
2018-08-09T10:28:37.646Z,8.08
2018-08-09T10:31:06.173Z,7.33
2018-08-09T10:33:34.698Z,7.37
2018-08-09T10:36:03.339Z,7.37
2018-08-09T10:38:31.922Z,8.10
2018-08-09T10:41:00.488Z,7.62
2018-08-09T10:43:29.007Z,7.17
2018-08-09T10:45:57.504Z,7.87
2018-08-09T10:48:26.187Z,7.75
2018-08-09T10:50:54.694Z,7.58
2018-08-09T10:53:23.358Z,7.40
2018-08-09T10:55:51.869Z,7.10
2018-08-09T10:58:20.352Z,7.12
2018-08-09T11:00:48.882Z,6.90
2018-08-09T11:03:17.518Z,8.00
2018-08-09T11:05:46.056Z,7.60
2018-08-09T11:08:14.570Z,8.20
2018-08-09T11:10:43.043Z,6.97
2018-08-09T11:13:11.585Z,7.12
2018-08-09T11:15:40.133Z,7.72
2018-08-09T11:18:08.711Z,7.37
2018-08-09T11:20:37.273Z,6.87
2018-08-09T11:23:06.192Z,6.90
2018-08-09T11:25:34.707Z,8.38
2018-08-09T11:28:03.221Z,7.05
2018-08-09T11:30:31.657Z,7.42
2018-08-09T11:33:00.278Z,7.03
2018-08-09T11:35:28.810Z,7.08
2018-08-09T11:37:57.364Z,6.67
2018-08-09T11:40:25.876Z,6.47
2018-08-09T11:42:54.512Z,7.40
2018-08-09T11:45:23.032Z,6.05
2018-08-09T11:47:51.515Z,6.58
2018-08-09T11:50:20.015Z,7.00
2018-08-09T11:52:48.539Z,7.10
2018-08-09T11:55:17.040Z,6.72
2018-08-09T11:57:45.629Z,7.28
2018-08-09T12:00:14.149Z,6.72
2018-08-09T12:02:42.663Z,7.03
2018-08-09T12:05:11.226Z,8.13
2018-08-09T12:07:39.859Z,7.15
2018-08-09T12:10:08.372Z,7.40
2018-08-09T12:12:37.022Z,7.35
2018-08-09T12:15:06.393Z,7.03
2018-08-09T12:17:34.936Z,6.92
2018-08-09T12:20:03.535Z,7.42
2018-08-09T12:22:32.349Z,7.17
2018-08-09T12:25:03.135Z,7.10
2018-08-09T12:27:31.806Z,7.42
2018-08-09T12:30:00.384Z,7.20
2018-08-09T12:32:29.117Z,7.83
2018-08-09T12:34:57.731Z,7.83
2018-08-09T12:37:26.335Z,7.67
2018-08-09T12:39:54.931Z,8.55
2018-08-09T12:42:23.499Z,7.83
2018-08-09T12:44:52.087Z,8.03
2018-08-09T12:47:20.605Z,7.78
2018-08-09T12:49:49.121Z,8.35
2018-08-09T12:52:17.642Z,8.43
2018-08-09T12:54:46.378Z,7.53
2018-08-09T12:57:15.062Z,7.80
2018-08-09T12:59:43.643Z,7.78
2018-08-09T13:02:12.149Z,6.78
2018-08-09T13:04:40.675Z,8.03
2018-08-09T13:07:09.212Z,8.65
2018-08-09T13:09:38.710Z,8.03
2018-08-09T13:12:07.283Z,8.30
2018-08-09T13:14:36.066Z,8.63
2018-08-09T13:17:04.797Z,7.90
2018-08-09T13:19:33.713Z,8.87
2018-08-09T13:22:02.381Z,9.23
2018-08-09T13:24:31.512Z,9.40
2018-08-09T13:27:00.396Z,8.73
2018-08-09T13:29:29.473Z,10.83
2018-08-09T13:31:58.304Z,10.63
2018-08-09T13:34:27.194Z,11.00
2018-08-09T13:36:55.827Z,10.13
2018-08-09T13:39:24.431Z,10.93
2018-08-09T13:41:53.240Z,9.07
2018-08-09T13:44:22.101Z,10.20
2018-08-09T13:46:50.765Z,10.63
2018-08-09T13:49:19.362Z,10.27
2018-08-09T13:51:48.765Z,8.20
2018-08-09T13:54:17.463Z,8.07
2018-08-09T13:56:46.123Z,8.00
2018-08-09T13:59:14.926Z,6.97
2018-08-09T14:01:43.602Z,6.87
2018-08-09T14:04:12.376Z,8.00
2018-08-09T14:06:41.059Z,7.33
2018-08-09T14:09:12.066Z,5.83
2018-08-09T14:11:41.107Z,6.83
2018-08-09T14:14:09.788Z,6.03
2018-08-09T14:16:39.017Z,7.20
2018-08-09T14:19:08.030Z,7.03
2018-08-09T14:21:36.561Z,6.57
2018-08-09T14:24:05.144Z,5.37
2018-08-09T14:26:34.138Z,5.43
2018-08-09T14:29:02.768Z,4.93
2018-08-09T14:31:31.415Z,5.40
2018-08-09T14:33:59.980Z,4.23
2018-08-09T14:36:28.702Z,4.33
2018-08-09T14:38:57.360Z,4.90
2018-08-09T14:41:26.036Z,4.40
2018-08-09T14:43:54.896Z,4.73
2018-08-09T14:46:23.750Z,5.33
2018-08-09T14:48:52.961Z,4.97
2018-08-09T14:51:21.729Z,4.87
2018-08-09T14:53:50.413Z,5.17
2018-08-09T14:56:19.156Z,4.37
2018-08-09T14:58:48.056Z,4.60
2018-08-09T15:01:16.861Z,3.97
2018-08-09T15:03:45.538Z,4.27
2018-08-09T15:06:14.612Z,3.83
2018-08-09T15:08:43.296Z,4.13
2018-08-09T15:11:11.976Z,5.00
2018-08-09T15:13:40.798Z,4.77
2018-08-09T15:16:09.563Z,3.70
2018-08-09T15:18:38.197Z,3.97
2018-08-09T15:26:48.391Z,3.80
2018-08-09T15:29:17.209Z,4.00
2018-08-09T15:31:46.029Z,3.90
2018-08-09T15:34:15.162Z,4.07
2018-08-09T15:36:44.153Z,4.17
2018-08-09T15:39:14.706Z,3.90
2018-08-09T15:41:43.801Z,3.40
2018-08-09T15:44:16.488Z,4.30
2018-08-09T15:46:45.325Z,4.73
2018-08-09T15:49:13.972Z,3.90
2018-08-09T15:51:42.702Z,4.53
2018-08-09T15:54:11.406Z,3.97
2018-08-09T15:56:40.115Z,4.43
2018-08-09T15:59:08.776Z,4.13
2018-08-09T16:01:37.356Z,4.20
2018-08-09T16:04:05.985Z,4.33
2018-08-09T16:06:34.610Z,4.13
2018-08-09T16:09:03.401Z,4.73
2018-08-09T16:11:32.034Z,4.40
2018-08-09T16:14:00.637Z,4.10
2018-08-09T16:19:07.268Z,3.67
2018-08-09T16:21:36.144Z,4.43
2018-08-09T16:24:05.572Z,4.37
2018-08-09T16:26:34.390Z,3.80
2018-08-09T16:29:03.128Z,3.60
2018-08-09T16:31:32.221Z,3.73
2018-08-09T16:34:00.831Z,3.73
2018-08-09T16:36:29.593Z,3.87
2018-08-09T16:38:58.280Z,3.97
2018-08-09T16:41:27.073Z,3.70
2018-08-09T16:43:55.830Z,4.13
2018-08-09T16:46:25.064Z,3.60
2018-08-09T16:48:54.108Z,4.07
2018-08-09T16:51:23.323Z,3.93
2018-08-09T16:53:52.006Z,3.97
2018-08-09T16:56:20.818Z,3.67
2018-08-09T16:58:50.000Z,3.70
2018-08-09T17:01:18.509Z,3.63
2018-08-09T17:03:47.426Z,4.07
2018-08-09T17:06:16.162Z,3.63
2018-08-09T17:08:44.978Z,3.70
2018-08-09T17:11:13.680Z,3.37
2018-08-09T17:13:42.308Z,3.73
2018-08-09T17:16:11.209Z,3.70
2018-08-09T17:18:39.788Z,3.87
2018-08-09T17:21:08.907Z,3.73
2018-08-09T17:23:37.573Z,3.33
2018-08-09T17:26:06.383Z,3.73
2018-08-09T17:28:35.057Z,3.70
2018-08-09T17:31:03.695Z,3.20
2018-08-09T17:33:32.414Z,3.53
2018-08-09T17:36:00.938Z,3.60
2018-08-09T17:38:29.569Z,3.53
2018-08-09T17:40:58.167Z,3.63
2018-08-09T17:43:26.890Z,3.30
2018-08-09T17:45:55.577Z,2.70
2018-08-09T17:48:24.325Z,2.63
2018-08-09T17:50:53.005Z,3.37
2018-08-09T17:53:21.563Z,2.70
2018-08-09T17:55:50.203Z,2.67
2018-08-09T17:58:18.913Z,3.17
2018-08-09T18:00:47.564Z,2.73
2018-08-09T18:03:16.250Z,2.63
2018-08-09T18:05:44.911Z,2.70
2018-08-09T18:08:13.535Z,2.83
2018-08-09T18:10:42.140Z,2.80
2018-08-09T18:13:10.729Z,2.73
2018-08-09T18:15:39.393Z,4.03
2018-08-09T18:18:08.014Z,2.00
2018-08-09T18:20:38.289Z,1.80
2018-08-09T18:23:07.307Z,1.70
2018-08-09T18:25:35.910Z,1.40
2018-08-09T18:28:04.689Z,2.10
2018-08-09T18:30:33.420Z,2.50
2018-08-09T18:33:02.112Z,2.43
2018-08-09T18:35:30.764Z,2.50
2018-08-09T18:37:59.460Z,2.73
2018-08-09T18:40:28.700Z,2.57
2018-08-09T18:42:57.351Z,2.50
2018-08-09T18:45:25.989Z,2.77
2018-08-09T18:47:55.098Z,2.93
2018-08-09T18:50:26.315Z,3.17
2018-08-09T18:52:55.447Z,3.00
2018-08-09T18:55:24.402Z,3.10
2018-08-09T18:57:53.309Z,3.60
2018-08-09T19:00:23.805Z,3.70
2018-08-09T19:02:52.979Z,3.10
2018-08-09T19:05:21.936Z,4.00
2018-08-09T19:07:50.799Z,3.10
2018-08-09T19:10:23.968Z,3.17
2018-08-09T19:12:52.528Z,3.07
2018-08-09T19:15:21.103Z,3.50
2018-08-09T19:17:49.818Z,2.87
2018-08-09T19:20:23.014Z,2.80
2018-08-09T19:22:51.750Z,3.10
2018-08-09T19:25:20.425Z,3.30
2018-08-09T19:27:49.136Z,2.77
2018-08-09T19:30:19.463Z,3.13
2018-08-09T19:32:48.387Z,3.07
2018-08-09T19:35:18.707Z,2.40
2018-08-09T19:37:47.398Z,2.93
2018-08-09T19:40:21.506Z,2.83
2018-08-09T19:42:50.291Z,3.23
2018-08-09T19:45:19.605Z,2.80
2018-08-09T19:47:48.464Z,2.17
2018-08-09T19:50:18.771Z,2.00
2018-08-09T19:52:47.392Z,1.87
2018-08-09T19:55:18.108Z,1.90
2018-08-09T19:57:47.778Z,1.87
2018-08-09T20:00:23.346Z,1.80
2018-08-09T20:02:52.013Z,2.17
2018-08-09T20:05:20.694Z,1.80
2018-08-09T20:11:08.751Z,1.97
2018-08-09T20:13:37.840Z,2.10
2018-08-09T20:16:06.648Z,1.90
2018-08-09T20:18:35.269Z,2.03
2018-08-09T20:21:03.999Z,2.20
2018-08-09T20:23:32.736Z,2.43
2018-08-09T20:26:01.390Z,2.30
2018-08-09T20:28:30.010Z,2.23
2018-08-09T20:30:58.813Z,2.23
2018-08-09T20:33:27.901Z,2.67
2018-08-09T20:35:57.684Z,2.17
2018-08-09T20:38:26.435Z,2.00
2018-08-09T20:40:55.031Z,2.60
2018-08-09T20:43:23.794Z,2.07
2018-08-09T20:45:52.435Z,2.87
2018-08-09T20:48:21.494Z,2.50
2018-08-09T20:50:50.439Z,2.30
2018-08-09T20:53:19.222Z,2.30
2018-08-09T20:55:48.059Z,2.50
2018-08-09T20:58:17.284Z,2.23
2018-08-09T21:00:45.978Z,2.80
2018-08-09T21:03:14.700Z,2.27
2018-08-09T21:05:43.756Z,2.10
2018-08-09T21:08:12.634Z,2.47
2018-08-09T21:10:41.268Z,2.03
2018-08-09T21:13:10.827Z,2.27
2018-08-09T21:15:39.588Z,2.77
2018-08-09T21:18:08.763Z,2.13
2018-08-09T21:20:37.864Z,2.00
2018-08-09T21:23:06.648Z,2.40
2018-08-09T21:25:35.235Z,1.80
2018-08-09T21:28:03.923Z,1.73
2018-08-09T21:30:32.520Z,1.60
2018-08-09T21:33:01.211Z,1.70
2018-08-09T21:35:29.976Z,1.33
2018-08-09T21:37:58.797Z,1.00
2018-08-09T21:40:27.447Z,0.90
2018-08-09T21:42:56.229Z,0.87
2018-08-09T21:45:25.122Z,0.90
2018-08-09T21:47:53.819Z,0.63
2018-08-09T21:50:23.397Z,0.80
2018-08-09T21:52:52.186Z,0.80
2018-08-09T21:55:20.972Z,0.70
2018-08-09T21:57:49.669Z,0.90
2018-08-09T22:01:05.135Z,0.87
2018-08-09T22:03:36.521Z,1.17
2018-08-09T22:06:10.278Z,1.20
2018-08-09T22:08:44.174Z,1.20
2018-08-09T22:11:18.819Z,1.10
2018-08-09T22:13:53.282Z,1.00
2018-08-09T22:16:27.155Z,0.87
2018-08-09T22:19:01.069Z,1.00
2018-08-09T22:21:35.080Z,1.00
2018-08-09T22:24:04.043Z,0.80
2018-08-09T22:26:32.789Z,0.90
2018-08-09T22:29:01.758Z,0.90
2018-08-09T22:31:30.673Z,0.70
2018-08-09T22:33:59.343Z,0.77
2018-08-09T22:36:28.027Z,0.80
2018-08-09T22:38:56.705Z,0.43
2018-08-09T22:41:25.596Z,0.57
2018-08-09T22:43:54.354Z,0.80
2018-08-09T22:46:23.785Z,0.70
2018-08-09T22:48:52.396Z,0.80
2018-08-09T22:51:21.063Z,0.93
2018-08-09T22:53:49.744Z,1.00
2018-08-09T22:56:19.874Z,1.07
2018-08-09T22:58:48.542Z,1.10
2018-08-09T23:01:17.176Z,1.33
2018-08-09T23:03:45.859Z,1.33
2018-08-09T23:06:16.868Z,1.00
2018-08-09T23:08:45.912Z,1.50
2018-08-09T23:11:14.494Z,1.10
2018-08-09T23:13:43.369Z,1.27
2018-08-09T23:16:12.116Z,1.30
2018-08-09T23:18:40.907Z,1.20
2018-08-09T23:21:09.876Z,1.23
2018-08-09T23:23:38.573Z,0.90
2018-08-09T23:26:07.343Z,0.90
2018-08-09T23:28:36.052Z,0.80
2018-08-09T23:31:04.920Z,1.10
2018-08-09T23:33:33.684Z,1.50
2018-08-09T23:36:02.461Z,1.40
2018-08-09T23:38:31.142Z,1.00
2018-08-09T23:41:00.084Z,1.23
2018-08-09T23:43:28.694Z,1.13
2018-08-09T23:45:57.928Z,1.47
2018-08-09T23:48:26.651Z,2.00
2018-08-09T23:50:55.291Z,1.70
2018-08-09T23:53:24.010Z,2.00
2018-08-09T23:55:52.765Z,1.67
2018-08-09T23:58:28.116Z,1.70
